createdAt,value
2019-05-05T00:00:37.570Z,4.94
2019-05-05T00:03:18.744Z,4.86
2019-05-05T00:05:50.508Z,4.72
2019-05-05T00:08:21.245Z,4.72
2019-05-05T00:10:54.542Z,4.75
2019-05-05T00:13:27.812Z,4.84
2019-05-05T00:16:09.512Z,4.72
2019-05-05T00:18:40.346Z,4.61
2019-05-05T00:21:11.081Z,4.67
2019-05-05T00:23:41.814Z,4.57
2019-05-05T00:26:14.680Z,4.64
2019-05-05T00:28:45.040Z,4.62
2019-05-05T00:31:15.760Z,4.69
2019-05-05T00:33:46.633Z,4.61
2019-05-05T00:36:17.552Z,4.74
2019-05-05T00:38:47.971Z,4.59
2019-05-05T00:41:18.797Z,4.56
2019-05-05T00:43:49.643Z,4.56
2019-05-05T00:46:24.884Z,4.55
2019-05-05T00:48:55.598Z,4.48
2019-05-05T00:51:26.352Z,4.40
2019-05-05T00:53:57.097Z,4.47
2019-05-05T00:56:27.828Z,4.48
2019-05-05T00:59:00.197Z,4.35
2019-05-05T01:01:35.338Z,4.36
2019-05-05T01:04:06.658Z,4.42
2019-05-05T01:06:37.514Z,4.24
2019-05-05T01:09:09.988Z,4.20
2019-05-05T01:11:40.564Z,4.16
2019-05-05T01:14:11.367Z,4.18
2019-05-05T01:16:42.088Z,4.10
2019-05-05T01:19:14.977Z,4.08
2019-05-05T01:21:46.028Z,4.08
2019-05-05T01:24:16.746Z,3.96
2019-05-05T01:26:47.495Z,3.94
2019-05-05T01:29:18.224Z,3.83
2019-05-05T01:31:49.063Z,4.05
2019-05-05T01:34:30.444Z,3.92
2019-05-05T01:37:15.230Z,3.84
2019-05-05T01:39:50.342Z,3.81
2019-05-05T01:42:21.058Z,3.74
2019-05-05T01:44:51.423Z,3.75
2019-05-05T01:47:22.349Z,3.72
2019-05-05T01:49:54.477Z,3.70
2019-05-05T01:52:25.744Z,3.78
2019-05-05T01:54:56.481Z,3.76
2019-05-05T01:57:27.632Z,3.84
2019-05-05T01:59:58.811Z,3.78
2019-05-05T02:02:29.602Z,3.80
2019-05-05T02:05:00.427Z,3.86
2019-05-05T02:07:31.307Z,3.84
2019-05-05T02:10:02.150Z,3.84
2019-05-05T02:12:35.173Z,3.80
2019-05-05T02:15:07.338Z,3.68
2019-05-05T02:17:38.117Z,3.73
2019-05-05T02:20:09.149Z,3.74
2019-05-05T02:22:40.018Z,3.74
2019-05-05T02:25:10.817Z,3.72
2019-05-05T02:27:41.573Z,3.70
2019-05-05T02:30:21.528Z,3.74
2019-05-05T02:32:55.424Z,3.72
2019-05-05T02:35:26.368Z,3.71
2019-05-05T02:37:57.297Z,3.77
2019-05-05T02:40:28.609Z,3.73
2019-05-05T02:42:59.482Z,3.71
2019-05-05T02:45:39.154Z,3.67
2019-05-05T02:48:14.862Z,3.68
2019-05-05T02:51:01.669Z,3.67
2019-05-05T02:53:34.001Z,3.61
2019-05-05T02:56:06.973Z,3.63
2019-05-05T02:58:39.432Z,3.55
2019-05-05T03:01:13.986Z,3.55
2019-05-05T03:03:44.883Z,3.53
2019-05-05T03:06:15.727Z,3.44
2019-05-05T03:08:47.561Z,3.42
2019-05-05T03:11:18.771Z,3.38
2019-05-05T03:13:53.507Z,3.40
2019-05-05T03:16:27.461Z,3.36
2019-05-05T03:18:58.409Z,3.32
2019-05-05T03:21:29.546Z,3.28
2019-05-05T03:24:00.386Z,3.38
2019-05-05T03:26:31.476Z,3.40
2019-05-05T03:29:04.765Z,3.37
2019-05-05T03:31:35.571Z,3.33
2019-05-05T03:34:06.786Z,3.30
2019-05-05T03:36:37.830Z,3.27
2019-05-05T03:39:10.221Z,3.18
2019-05-05T03:41:59.583Z,3.29
2019-05-05T03:44:36.267Z,3.30
2019-05-05T03:47:07.653Z,3.24
2019-05-05T03:49:38.445Z,3.20
2019-05-05T03:52:09.690Z,3.19
2019-05-05T03:54:41.038Z,3.23
2019-05-05T03:57:14.114Z,3.14
2019-05-05T03:59:45.150Z,3.14
2019-05-05T04:02:34.118Z,3.15
2019-05-05T04:05:24.823Z,3.18
2019-05-05T04:07:55.878Z,3.10
2019-05-05T04:10:26.603Z,3.24
2019-05-05T04:12:57.741Z,3.18
2019-05-05T04:15:28.580Z,3.18
2019-05-05T04:18:04.057Z,3.30
2019-05-05T04:20:35.162Z,3.26
2019-05-05T04:23:06.023Z,3.21
2019-05-05T04:25:36.836Z,3.26
2019-05-05T04:28:07.571Z,3.25
2019-05-05T04:30:38.425Z,3.20
2019-05-05T04:33:09.366Z,3.20
2019-05-05T04:35:40.185Z,3.10
2019-05-05T04:38:11.039Z,3.18
2019-05-05T04:40:43.538Z,3.22
2019-05-05T04:43:14.527Z,3.26
2019-05-05T04:45:45.378Z,3.28
2019-05-05T04:48:17.751Z,3.27
2019-05-05T04:50:54.388Z,3.38
2019-05-05T04:53:27.103Z,3.41
2019-05-05T04:55:57.833Z,3.50
2019-05-05T04:58:28.671Z,3.74
2019-05-05T05:00:59.405Z,4.00
2019-05-05T05:03:34.773Z,4.18
2019-05-05T05:06:07.224Z,4.39
2019-05-05T05:08:37.955Z,4.50
2019-05-05T05:11:08.694Z,4.68
2019-05-05T05:13:39.430Z,4.74
2019-05-05T05:16:10.153Z,4.74
2019-05-05T05:18:40.538Z,4.76
2019-05-05T05:21:11.236Z,4.77
2019-05-05T05:23:41.638Z,4.91
2019-05-05T05:26:13.879Z,5.10
2019-05-05T05:28:44.995Z,5.28
2019-05-05T05:31:15.717Z,5.44
2019-05-05T05:33:46.548Z,5.46
2019-05-05T05:36:17.285Z,5.47
2019-05-05T05:38:49.428Z,5.52
2019-05-05T05:41:24.790Z,5.57
2019-05-05T05:44:03.555Z,5.56
2019-05-05T05:46:36.194Z,5.60
2019-05-05T05:49:08.575Z,5.76
2019-05-05T05:51:39.324Z,5.64
2019-05-05T05:54:10.209Z,5.84
2019-05-05T05:56:40.738Z,5.56
2019-05-05T05:59:11.497Z,5.56
2019-05-05T06:01:43.733Z,5.84
2019-05-05T06:04:14.842Z,5.82
2019-05-05T06:06:45.551Z,6.02
2019-05-05T06:09:16.396Z,6.16
2019-05-05T06:11:47.122Z,6.26
2019-05-05T06:14:17.948Z,6.37
2019-05-05T06:16:48.796Z,6.38
2019-05-05T06:19:19.328Z,6.51
2019-05-05T06:21:54.143Z,6.52
2019-05-05T06:24:24.928Z,6.52
2019-05-05T06:26:55.712Z,6.56
2019-05-05T06:29:26.288Z,6.48
2019-05-05T06:31:57.079Z,6.48
2019-05-05T06:34:27.930Z,6.58
2019-05-05T06:36:58.758Z,6.50
2019-05-05T06:39:29.140Z,6.49
2019-05-05T06:42:01.560Z,6.51
2019-05-05T06:44:39.376Z,6.56
2019-05-05T06:47:13.494Z,6.52
2019-05-05T06:49:44.612Z,6.50
2019-05-05T06:52:15.346Z,6.62
2019-05-05T06:54:46.177Z,6.62
2019-05-05T06:57:17.143Z,6.63
2019-05-05T06:59:47.633Z,6.72
2019-05-05T07:02:18.680Z,6.62
2019-05-05T07:04:50.793Z,6.66
2019-05-05T07:07:23.496Z,6.66
2019-05-05T07:09:54.372Z,6.74
2019-05-05T07:12:25.226Z,6.90
2019-05-05T07:14:56.530Z,6.77
2019-05-05T07:17:27.292Z,6.79
2019-05-05T07:19:58.130Z,6.92
2019-05-05T07:22:28.880Z,7.08
2019-05-05T07:24:59.595Z,7.16
2019-05-05T07:27:30.326Z,7.20
2019-05-05T07:30:01.172Z,7.22
2019-05-05T07:32:33.690Z,7.14
2019-05-05T07:35:09.300Z,7.24
2019-05-05T07:37:40.016Z,7.26
2019-05-05T07:40:10.990Z,7.31
2019-05-05T07:42:43.957Z,7.42
2019-05-05T07:45:22.190Z,7.52
2019-05-05T07:47:47.930Z,7.59
2019-05-05T07:50:28.648Z,7.53
2019-05-05T07:52:54.566Z,7.82
2019-05-05T07:55:25.516Z,7.64
2019-05-05T07:57:55.982Z,7.66
2019-05-05T08:00:27.028Z,7.88
2019-05-05T08:02:57.934Z,7.91
2019-05-05T08:05:28.680Z,8.08
2019-05-05T08:07:59.476Z,8.12
2019-05-05T08:10:34.364Z,8.03
2019-05-05T08:13:05.255Z,8.27
2019-05-05T08:15:36.719Z,8.22
2019-05-05T08:18:13.887Z,8.14
2019-05-05T08:20:46.379Z,8.24
2019-05-05T08:23:29.049Z,8.34
2019-05-05T08:25:54.065Z,8.38
2019-05-05T08:28:35.880Z,8.43
2019-05-05T08:31:08.263Z,8.51
2019-05-05T08:33:39.118Z,8.78
2019-05-05T08:36:09.990Z,8.64
2019-05-05T08:38:40.788Z,8.62
2019-05-05T08:41:13.739Z,8.75
2019-05-05T08:43:44.287Z,8.74
2019-05-05T08:46:15.121Z,8.79
2019-05-05T08:48:45.972Z,9.01
2019-05-05T08:51:16.526Z,9.08
2019-05-05T08:53:48.488Z,9.32
2019-05-05T08:56:19.657Z,9.28
2019-05-05T08:58:50.450Z,9.35
2019-05-05T09:01:21.079Z,9.33
2019-05-05T09:03:53.573Z,9.42
2019-05-05T09:06:24.486Z,9.57
2019-05-05T09:08:55.430Z,9.81
2019-05-05T09:11:26.308Z,10.05
2019-05-05T09:13:57.124Z,9.96
2019-05-05T09:16:28.045Z,9.95
2019-05-05T09:19:04.177Z,9.82
2019-05-05T09:21:34.918Z,9.72
2019-05-05T09:24:19.277Z,9.56
2019-05-05T09:26:51.643Z,9.44
2019-05-05T09:29:24.288Z,9.28
2019-05-05T09:31:55.230Z,9.25
2019-05-05T09:34:25.634Z,9.42
2019-05-05T09:36:56.443Z,9.54
2019-05-05T09:39:27.075Z,9.42
2019-05-05T09:41:57.888Z,9.50
2019-05-05T09:44:28.377Z,9.44
2019-05-05T09:46:59.175Z,9.44
2019-05-05T09:49:29.998Z,9.41
2019-05-05T09:52:00.846Z,9.32
2019-05-05T09:54:31.671Z,9.44
2019-05-05T09:57:04.526Z,9.62
2019-05-05T09:59:34.981Z,9.74
2019-05-05T10:02:05.816Z,9.92
2019-05-05T10:04:37.917Z,10.17
2019-05-05T10:07:09.045Z,10.50
2019-05-05T10:09:39.937Z,10.66
2019-05-05T10:12:10.855Z,10.90
2019-05-05T10:14:41.643Z,11.27
2019-05-05T10:17:14.105Z,10.92
2019-05-05T10:19:45.021Z,10.73
2019-05-05T10:22:15.791Z,10.87
2019-05-05T10:24:48.253Z,10.64
2019-05-05T10:27:19.001Z,10.49
2019-05-05T10:29:49.829Z,10.48
2019-05-05T10:32:20.683Z,10.36
2019-05-05T10:34:53.197Z,10.30
2019-05-05T10:37:23.985Z,10.54
2019-05-05T10:39:55.239Z,10.70
2019-05-05T10:42:27.595Z,10.79
2019-05-05T10:44:58.326Z,11.02
2019-05-05T10:47:29.171Z,11.17
2019-05-05T10:49:59.897Z,11.04
2019-05-05T10:52:30.623Z,11.06
2019-05-05T10:55:01.360Z,11.15
2019-05-05T10:57:34.042Z,11.11
2019-05-05T11:00:12.184Z,11.23
2019-05-05T11:02:39.393Z,11.10
2019-05-05T11:05:10.951Z,11.20
2019-05-05T11:07:42.713Z,11.06
2019-05-05T11:10:15.283Z,11.39
2019-05-05T11:12:48.591Z,11.32
2019-05-05T11:15:20.867Z,11.48
2019-05-05T11:17:51.723Z,11.48
2019-05-05T11:20:24.691Z,11.29
2019-05-05T11:22:54.735Z,11.02
2019-05-05T11:25:27.085Z,10.80
2019-05-05T11:27:58.929Z,10.72
2019-05-05T11:30:38.983Z,10.88
2019-05-05T11:33:23.816Z,11.07
2019-05-05T11:35:59.347Z,11.22
2019-05-05T11:38:29.785Z,11.20
2019-05-05T11:41:00.339Z,11.32
2019-05-05T11:43:30.779Z,11.16
2019-05-05T11:46:01.543Z,11.04
2019-05-05T11:48:34.362Z,11.13
2019-05-05T11:51:04.931Z,11.24
2019-05-05T11:53:35.761Z,11.22
2019-05-05T11:56:06.953Z,11.30
2019-05-05T11:58:37.680Z,11.39
2019-05-05T12:01:08.680Z,11.27
2019-05-05T12:03:39.432Z,11.61
2019-05-05T12:06:09.878Z,11.38
2019-05-05T12:08:43.588Z,11.72
2019-05-05T12:11:14.844Z,11.93
2019-05-05T12:13:45.356Z,12.09
2019-05-05T12:16:17.578Z,12.01
2019-05-05T12:18:48.422Z,12.10
2019-05-05T12:21:19.155Z,12.12
2019-05-05T12:23:50.043Z,12.22
2019-05-05T12:26:24.367Z,12.20
2019-05-05T12:28:59.461Z,12.46
2019-05-05T12:31:33.861Z,12.32
2019-05-05T12:34:05.845Z,12.16
2019-05-05T12:36:36.769Z,11.97
2019-05-05T12:39:09.566Z,11.98
2019-05-05T12:41:40.398Z,11.84
2019-05-05T12:44:14.290Z,11.68
2019-05-05T12:46:52.619Z,11.66
2019-05-05T12:49:25.345Z,11.59
2019-05-05T12:51:56.825Z,11.86
2019-05-05T12:54:28.526Z,11.94
2019-05-05T12:57:00.430Z,12.13
2019-05-05T12:59:31.253Z,12.20
2019-05-05T13:02:04.344Z,12.42
2019-05-05T13:04:35.267Z,12.56
2019-05-05T13:07:08.206Z,12.40
2019-05-05T13:09:41.018Z,12.69
2019-05-05T13:12:11.762Z,12.80
2019-05-05T13:14:43.858Z,12.50
2019-05-05T13:17:14.870Z,12.46
2019-05-05T13:19:53.117Z,12.07
2019-05-05T13:22:28.515Z,12.06
2019-05-05T13:25:19.026Z,12.16
2019-05-05T13:27:51.400Z,12.03
2019-05-05T13:30:23.615Z,11.94
2019-05-05T13:32:54.585Z,11.88
2019-05-05T13:35:25.375Z,12.02
2019-05-05T13:37:56.151Z,11.82
2019-05-05T13:40:26.894Z,11.77
2019-05-05T13:42:57.774Z,11.40
2019-05-05T13:45:30.126Z,11.26
2019-05-05T13:48:00.943Z,11.38
2019-05-05T13:50:35.067Z,11.58
2019-05-05T13:53:05.926Z,11.60
2019-05-05T13:55:36.756Z,11.62
2019-05-05T13:58:08.931Z,11.38
2019-05-05T14:00:39.934Z,11.52
2019-05-05T14:03:10.688Z,11.36
2019-05-05T14:05:41.102Z,11.54
2019-05-05T14:08:11.844Z,11.66
2019-05-05T14:10:42.673Z,11.61
2019-05-05T14:13:15.116Z,11.74
2019-05-05T14:15:45.585Z,11.72
2019-05-05T14:18:16.420Z,11.50
2019-05-05T14:20:47.286Z,11.90
2019-05-05T14:23:18.386Z,11.97
2019-05-05T14:25:49.142Z,11.85
2019-05-05T14:28:19.587Z,11.67
2019-05-05T14:30:54.038Z,11.74
2019-05-05T14:33:26.130Z,11.83
2019-05-05T14:35:58.522Z,11.90
2019-05-05T14:38:34.177Z,11.63
2019-05-05T14:41:04.750Z,11.60
2019-05-05T14:43:35.154Z,11.66
2019-05-05T14:46:05.950Z,11.72
2019-05-05T14:48:37.180Z,11.78
2019-05-05T14:51:08.173Z,11.51
2019-05-05T14:53:39.086Z,12.10
2019-05-05T14:56:10.040Z,11.80
2019-05-05T14:58:40.867Z,12.28
2019-05-05T15:01:11.598Z,12.54
2019-05-05T15:03:44.336Z,12.12
2019-05-05T15:06:28.124Z,12.18
2019-05-05T15:09:06.993Z,12.09
2019-05-05T15:11:56.193Z,12.16
2019-05-05T15:14:26.949Z,11.82
2019-05-05T15:16:57.683Z,11.90
2019-05-05T15:19:28.512Z,12.02
2019-05-05T15:21:59.268Z,11.86
2019-05-05T15:24:30.099Z,11.96
2019-05-05T15:27:00.820Z,11.96
2019-05-05T15:29:31.608Z,12.06
2019-05-05T15:32:04.209Z,11.97
2019-05-05T15:34:34.573Z,12.01
2019-05-05T15:37:05.502Z,12.06
2019-05-05T15:39:36.253Z,11.98
2019-05-05T15:42:07.174Z,11.90
2019-05-05T15:44:38.120Z,11.97
2019-05-05T15:47:08.823Z,12.11
2019-05-05T15:49:39.565Z,12.08
2019-05-05T15:52:10.326Z,12.08
2019-05-05T15:54:41.129Z,12.00
2019-05-05T15:57:13.897Z,11.99
2019-05-05T15:59:44.164Z,11.98
2019-05-05T16:02:14.889Z,12.00
2019-05-05T16:04:45.841Z,11.98
2019-05-05T16:07:16.664Z,11.94
2019-05-05T16:09:47.399Z,12.28
2019-05-05T16:12:31.039Z,12.02
2019-05-05T16:14:53.806Z,12.38
2019-05-05T16:17:26.447Z,12.42
2019-05-05T16:20:04.556Z,12.61
2019-05-05T16:22:37.131Z,12.67
2019-05-05T16:25:09.824Z,12.68
2019-05-05T16:27:44.023Z,12.60
2019-05-05T16:30:16.718Z,12.64
2019-05-05T16:32:47.435Z,12.65
2019-05-05T16:35:18.281Z,12.65
2019-05-05T16:37:49.009Z,12.52
2019-05-05T16:40:23.144Z,12.42
2019-05-05T16:42:54.300Z,12.55
2019-05-05T16:45:25.817Z,12.52
2019-05-05T16:47:56.669Z,12.17
2019-05-05T16:50:27.447Z,12.34
2019-05-05T16:53:03.922Z,12.34
2019-05-05T16:55:55.294Z,12.19
2019-05-05T16:58:25.769Z,12.24
2019-05-05T17:00:56.551Z,12.96
2019-05-05T17:03:29.061Z,13.26
2019-05-05T17:05:59.958Z,12.87
2019-05-05T17:08:30.699Z,12.58
2019-05-05T17:11:01.425Z,12.22
2019-05-05T17:13:33.929Z,12.05
2019-05-05T17:16:13.465Z,11.90
2019-05-05T17:18:45.809Z,11.74
2019-05-05T17:21:24.066Z,11.67
2019-05-05T17:23:54.775Z,11.64
2019-05-05T17:26:25.686Z,11.59
2019-05-05T17:28:56.456Z,11.60
2019-05-05T17:31:27.185Z,11.58
2019-05-05T17:33:57.929Z,11.55
2019-05-05T17:36:28.880Z,11.58
2019-05-05T17:38:59.692Z,11.52
2019-05-05T17:41:50.190Z,11.54
2019-05-05T17:44:25.618Z,11.56
2019-05-05T17:47:01.100Z,11.45
2019-05-05T17:49:33.526Z,11.39
2019-05-05T17:52:05.704Z,11.46
2019-05-05T17:54:44.586Z,11.44
2019-05-05T17:57:15.686Z,11.34
2019-05-05T17:59:46.482Z,11.32
2019-05-05T18:02:17.052Z,11.27
2019-05-05T18:04:48.090Z,11.22
2019-05-05T18:07:29.477Z,11.23
2019-05-05T18:10:03.975Z,11.11
2019-05-05T18:12:54.063Z,11.08
2019-05-05T18:15:43.503Z,11.00
2019-05-05T18:18:14.411Z,11.00
2019-05-05T18:20:45.137Z,11.00
2019-05-05T18:23:15.601Z,10.97
2019-05-05T18:25:46.045Z,10.94
2019-05-05T18:28:20.166Z,10.91
2019-05-05T18:30:49.626Z,10.84
2019-05-05T18:33:20.437Z,10.81
2019-05-05T18:35:51.194Z,10.84
2019-05-05T18:38:23.592Z,10.82
2019-05-05T18:40:56.132Z,10.74
2019-05-05T18:43:28.616Z,10.74
2019-05-05T18:46:04.581Z,10.74
2019-05-05T18:48:35.734Z,10.59
2019-05-05T18:51:06.442Z,10.69
2019-05-05T18:53:55.076Z,10.64
2019-05-05T18:56:25.882Z,10.58
2019-05-05T18:58:56.679Z,10.54
2019-05-05T19:01:34.787Z,10.57
2019-05-05T19:04:07.398Z,10.56
2019-05-05T19:06:48.840Z,10.52
2019-05-05T19:09:24.930Z,10.44
2019-05-05T19:11:55.550Z,10.47
2019-05-05T19:14:29.850Z,10.38
2019-05-05T19:16:58.981Z,10.36
2019-05-05T19:19:30.039Z,10.32
2019-05-05T19:22:05.321Z,10.30
2019-05-05T19:24:36.067Z,10.25
2019-05-05T19:27:07.121Z,10.22
2019-05-05T19:29:37.941Z,10.20
2019-05-05T19:32:08.774Z,10.20
2019-05-05T19:34:39.528Z,10.19
2019-05-05T19:37:10.354Z,10.14
2019-05-05T19:39:41.198Z,10.10
2019-05-05T19:42:14.308Z,10.12
2019-05-05T19:44:44.814Z,10.04
2019-05-05T19:47:20.561Z,10.08
2019-05-05T19:49:53.044Z,10.02
2019-05-05T19:52:24.055Z,10.05
2019-05-05T19:54:55.022Z,10.03
2019-05-05T19:57:25.447Z,9.96
2019-05-05T19:59:55.938Z,9.88
2019-05-05T20:02:26.795Z,9.86
2019-05-05T20:04:57.238Z,9.79
2019-05-05T20:07:28.088Z,9.76
2019-05-05T20:10:01.408Z,9.71
2019-05-05T20:12:34.234Z,9.73
2019-05-05T20:15:07.858Z,9.66
2019-05-05T20:17:39.294Z,9.70
2019-05-05T20:20:13.860Z,9.64
2019-05-05T20:22:44.610Z,9.64
2019-05-05T20:25:15.449Z,9.63
2019-05-05T20:27:47.877Z,9.60
2019-05-05T20:30:18.898Z,9.57
2019-05-05T20:32:56.155Z,9.56
2019-05-05T20:35:28.274Z,9.52
2019-05-05T20:38:04.759Z,9.56
2019-05-05T20:40:37.530Z,9.52
2019-05-05T20:43:08.330Z,9.52
2019-05-05T20:45:39.271Z,9.48
2019-05-05T20:48:09.660Z,9.52
2019-05-05T20:50:40.110Z,9.50
2019-05-05T20:53:10.790Z,9.48
2019-05-05T20:55:41.722Z,9.55
2019-05-05T20:58:14.112Z,9.58
2019-05-05T21:00:44.934Z,9.58
2019-05-05T21:03:15.313Z,9.62
2019-05-05T21:05:51.178Z,9.64
2019-05-05T21:08:18.539Z,9.59
2019-05-05T21:10:49.398Z,9.62
2019-05-05T21:13:20.338Z,9.65
2019-05-05T21:15:51.174Z,9.61
2019-05-05T21:18:23.909Z,9.61
2019-05-05T21:20:54.743Z,9.58
2019-05-05T21:23:27.758Z,9.57
2019-05-05T21:26:05.988Z,9.50
2019-05-05T21:28:36.832Z,9.44
2019-05-05T21:31:07.354Z,9.38
2019-05-05T21:33:38.188Z,9.28
2019-05-05T21:36:09.035Z,9.22
2019-05-05T21:38:41.081Z,9.20
2019-05-05T21:41:13.842Z,9.24
2019-05-05T21:43:44.874Z,9.16
2019-05-05T21:46:15.908Z,9.12
2019-05-05T21:48:46.591Z,9.16
2019-05-05T21:51:35.232Z,9.05
2019-05-05T21:54:23.792Z,9.02
2019-05-05T21:57:14.089Z,8.94
2019-05-05T21:59:54.881Z,8.85
2019-05-05T22:02:17.999Z,8.78
2019-05-05T22:04:48.742Z,8.77
2019-05-05T22:07:19.822Z,8.70
2019-05-05T22:09:50.660Z,8.66
2019-05-05T22:12:24.326Z,8.62
2019-05-05T22:14:58.088Z,8.58
2019-05-05T22:17:28.862Z,8.53
2019-05-05T22:20:01.106Z,8.56
2019-05-05T22:22:37.596Z,8.50
2019-05-05T22:25:14.170Z,8.44
2019-05-05T22:27:45.114Z,8.47
2019-05-05T22:30:15.841Z,8.38
2019-05-05T22:32:46.218Z,8.28
2019-05-05T22:35:16.896Z,8.26
2019-05-05T22:37:47.644Z,8.24
2019-05-05T22:40:24.635Z,8.20
2019-05-05T22:42:55.557Z,8.12
2019-05-05T22:45:26.396Z,8.14
2019-05-05T22:47:57.123Z,8.08
2019-05-05T22:50:27.620Z,7.98
2019-05-05T22:52:58.155Z,7.99
2019-05-05T22:55:28.946Z,7.98
2019-05-05T22:57:59.783Z,7.94
2019-05-05T23:00:30.726Z,8.06
2019-05-05T23:03:09.040Z,7.90
2019-05-05T23:05:41.180Z,7.76
2019-05-05T23:08:13.573Z,7.72
2019-05-05T23:10:44.586Z,7.75
2019-05-05T23:13:14.980Z,7.76
2019-05-05T23:15:47.277Z,7.72
2019-05-05T23:18:19.720Z,7.66
2019-05-05T23:20:58.462Z,7.58
2019-05-05T23:23:46.819Z,7.59
2019-05-05T23:26:24.977Z,7.52
2019-05-05T23:28:55.795Z,7.60
2019-05-05T23:31:26.277Z,7.43
2019-05-05T23:33:56.745Z,7.47
2019-05-05T23:36:27.696Z,7.44
2019-05-05T23:38:58.068Z,7.46
2019-05-05T23:41:28.852Z,7.40
2019-05-05T23:43:59.692Z,7.50
2019-05-05T23:46:30.509Z,7.43
2019-05-05T23:49:01.258Z,7.50
2019-05-05T23:51:32.165Z,7.55
2019-05-05T23:54:04.252Z,7.49
2019-05-05T23:56:35.501Z,7.47
2019-05-05T23:59:06.330Z,7.40
